Airport Code: KEST // Unicom: 122.80 // Phone: 712-362-2761

Estherville Aviation

Welcome to Estherville Aviation. We are a small, family owned and operated fixed base operation (FBO) located at the Estherville, Iowa airport in Northwest Iowa.  The Estherville airport, KEST, is located 3 miles east of Estherville on highway 9, 15 miles east of the Iowa Great Lakes Region and Okoboji.

AirNav Information

Click the button above to visit Estherville Aviation’s AirNav profile.

Estherville Weather

ASOS

Frequency
Telephone

121.425
712-362-7250

Available data for KEST from the past 6 hours
ESTHERVILLE, IA
Metar
KEST 210552Z AUTO 17017G23KT 10SM CLR 16/13 A2969 RMK AO2 SLP049 T01610133 10194 20161 402390094 58005

05:52 UTC

Wind: 170° 17kt

Visibility: 10 SM

Sky:

Temp: 16 deg C / 60.8 deg F

Dewpoint: 13 deg C / 55.4 deg F

Pressure: 29.69 inHg

Pireps (5)
MSP UUA /OV MSP300005/TM 0250/FL040/TP B737/TB MDT TURB/RM LLWS +/-15 KTS 040-SFC DURD
KLNK UUA /OV LNK360001/TM 0248/FL015/TP E55P/RM +10KTS 1MF RWY17
HON UA /OV HON140060/TM 0118/FL360/TP B737/TB LGT CHOP
HON UA /OV HON140040/TM 0115/FL320/TP B737/TB LGT CHOP
TNU UA /OV TNU/TM 0105/FL360/TP B738/TB LGT-MOD

Estherville Fuel Prices

Fuel Type  Self-Serve Price
 JET A w/ Add

(30 Aug 2016)

 $3.50
100LL

(4 Oct 2017)

$4.40 Credit
$4.25 Cash

Aeronautical Charts

Authorized Service Centers

Estherville Aviation is an authorized service center for Cirrus, Rotax, Remos and Flight Design brands.